Flight Track Log - Related Links

Times and Time Zones

All times are in EDT time to prevent confusion due to time zone crossing. See the SWA641 flight status page for this flight to view local times or setup timezone preferences in your user account.


Time Position Orientation Groundspeed Altitude Reporting Facility
EDT Latitude Longitude Course Direction KTS MPH feet Rate Location/Type
Thu 10:04:50 AM 38.9167 -77.4833 343° North 199 229 3,100  Level Potomac TRACON
Thu 10:05:50 AM 38.9167 -77.5500 270° West 200 230 4,800 1,564 Climbing Potomac TRACON
Thu 10:07:35 AM 38.8947 -77.7039 260° West 253 291 7,400 2,073 Climbing Washington Center
Thu 10:08:35 AM 38.8872 -77.7864 263° West 263 303 10,500 3,100 Climbing Washington Center
Thu 10:09:35 AM 38.8978 -77.8881 278° West 274 315 13,600 2,750 Climbing Washington Center
Thu 10:10:00 AM 39.0878 -77.7504 343° North  Level Estimated
Thu 10:10:35 AM 38.9183 -78.0036 283° West 302 348 16,000  Level Washington Center
Thu 10:11:35 AM 38.9450 -78.1325 285° West 335 386 19,200 3,000 Climbing Washington Center
Thu 10:12:35 AM 38.9608 -78.2639 279° West 371 427 22,000 1,450 Climbing Washington Center
Thu 10:13:35 AM 38.9661 -78.4031 273° West 387 445 22,100 1,250 Climbing Washington Center
Thu 10:14:35 AM 38.9711 -78.5447 273° West 397 457 24,500 2,350 Climbing Washington Center
Thu 10:15:35 AM 38.9756 -78.6944 272° West 407 468 26,800 2,300 Climbing Washington Center
Thu 10:16:35 AM 38.9797 -78.8467 272° West 421 484 29,100 2,300 Climbing Washington Center
Thu 10:17:35 AM 38.9839 -78.9992 272° West 427 491 31,400 2,150 Climbing Washington Center
Thu 10:18:35 AM 38.9878 -79.1517 272° West 432 497 33,400 1,850 Climbing Washington Center
Thu 10:19:35 AM 38.9914 -79.3094 272° West 438 504 35,100 3,300 Climbing Washington Center
Thu 10:20:35 AM 38.9964 -79.4831 272° West 448 516 40,000 1,500 Climbing Washington Center
Thu 10:21:35 AM 38.9994 -79.6411 271° West 448 516 38,100 -300 Descending Washington Center
Thu 10:22:35 AM 39.0025 -79.7986 271° West 448 516 39,400 637 Climbing Washington Center
Thu 10:24:34 AM 39.0039 -80.0797 270° West 429 494 40,000 200 Climbing Indianapolis Center
Thu 10:25:35 AM 39.0061 -80.2317 271° West 430 495 40,000  Level Indianapolis Center
Thu 10:26:37 AM 39.0083 -80.3825 271° West 425 489 40,000  Level Indianapolis Center
Thu 10:27:39 AM 39.0378 -80.5253 285° West 426 490 40,000  Level Indianapolis Center
Thu 10:28:40 AM 39.1078 -80.6858 299° West 428 493 40,000  Level Indianapolis Center
Thu 10:29:42 AM 39.1667 -80.8172 300° West 426 490 40,000  Level Indianapolis Center
Thu 10:30:44 AM 39.2239 -80.9475 300° West 422 486 40,000  Level Indianapolis Center
Thu 10:31:45 AM 39.2811 -81.0764 300° West 418 481 40,000  Level Indianapolis Center
Thu 10:32:47 AM 39.3383 -81.2042 300° West 414 476 40,000  Level Indianapolis Center
Thu 10:33:49 AM 39.3933 -81.3319 299° West 410 472 40,000 -49 Level Indianapolis Center
Thu 10:34:50 AM 39.4486 -81.4583 300° West 406 467 39,900  Descending Indianapolis Center
Thu 10:35:52 AM 39.5147 -81.6100 300° West 406 467 40,000 48 Climbing Indianapolis Center
Thu 10:36:54 AM 39.5708 -81.7378 300° West 407 468 40,000  Level Indianapolis Center
Thu 10:37:55 AM 39.6253 -81.8667 299° West 408 470 40,000  Level Indianapolis Center
Thu 10:38:57 AM 39.6803 -81.9953 299° West 407 468 40,000  Level Indianapolis Center
Thu 10:39:59 AM 39.7353 -82.1203 300° West 408 470 40,000  Level Indianapolis Center
Thu 10:41:00 AM 39.7900 -82.2494 299° West 405 466 40,000  Level Indianapolis Center
Thu 10:42:02 AM 39.8528 -82.3989 299° West 402 463 40,000  Level Indianapolis Center
Thu 10:43:04 AM 39.9069 -82.5283 299° West 404 465 40,000  Level Indianapolis Center
Thu 10:44:05 AM 39.9619 -82.6578 299° West 404 465 40,000  Level Indianapolis Center
Thu 10:45:07 AM 40.0144 -82.7850 298° West 400 460 40,000  Level Indianapolis Center
Thu 10:46:08 AM 40.0794 -82.9036 306° West 400 460 40,000  Level Indianapolis Center
Thu 10:47:10 AM 40.1494 -83.0169 309° West 400 460 40,000  Level Indianapolis Center
Thu 10:48:11 AM 40.2192 -83.1306 309° West 399 459 40,000  Level Indianapolis Center
Thu 10:49:13 AM 40.2886 -83.2447 309° West 399 459 40,000  Level Indianapolis Center
Thu 10:50:14 AM 40.3686 -83.3769 308° West 397 457 40,000  Level Indianapolis Center
Thu 10:51:16 AM 40.4375 -83.4900 309° West 395 455 40,000  Level Indianapolis Center
Thu 10:52:17 AM 40.5058 -83.6036 308° West 395 455 40,000  Level Indianapolis Center
Thu 10:53:19 AM 40.5744 -83.7175 308° West 395 455 40,000  Level Indianapolis Center
Thu 10:54:20 AM 40.6428 -83.8328 308° West 397 457 40,000  Level Indianapolis Center
Thu 10:55:22 AM 40.7119 -83.9469 309° West 394 453 40,000  Level Indianapolis Center
Thu 10:56:23 AM 40.7808 -84.0631 308° West 398 458 40,000  Level Indianapolis Center
Thu 10:57:25 AM 40.8497 -84.1803 308° West 401 461 40,000  Level Indianapolis Center
Thu 10:58:09 AM 40.8992 -84.2622 309° West 403 464 40,000  Level Chicago Center
Thu 10:59:10 AM 40.9669 -84.3783 308° West 399 459 40,000  Level Chicago Center
Thu 11:00:11 AM 41.0339 -84.4936 308° West 397 457 40,000  Level Chicago Center
Thu 11:01:12 AM 41.1022 -84.6089 308° West 398 458 40,000  Level Chicago Center
Thu 11:02:13 AM 41.1825 -84.7489 307° West 398 458 40,000  Level Chicago Center
Thu 11:03:15 AM 41.2500 -84.8650 308° West 399 459 40,000  Level Chicago Center
Thu 11:04:16 AM 41.3169 -84.9814 307° West 397 457 40,000  Level Chicago Center
Thu 11:05:17 AM 41.3847 -85.0994 307° West 400 460 40,000  Level Chicago Center
Thu 11:06:18 AM 41.4511 -85.2169 307° West 398 458 40,000  Level Chicago Center
Thu 11:07:19 AM 41.5186 -85.3364 307° West 400 460 40,000 197 Level Chicago Center
Thu 11:08:20 AM 41.5867 -85.4533 308° West 397 457 40,400 492 Climbing Chicago Center
Thu 11:09:21 AM 41.6519 -85.5708 307° West 395 455 41,000 293 Climbing Chicago Center
Thu 11:10:23 AM 41.7206 -85.6939 307° West 388 447 41,000  Level Chicago Center
Thu 11:11:24 AM 41.7850 -85.8086 307° West 385 443 41,000  Level Chicago Center
Thu 11:12:25 AM 41.8503 -85.9233 307° West 386 444 41,000  Level Chicago Center
Thu 11:13:26 AM 41.9156 -86.0386 307° West 388 447 41,000  Level Chicago Center
Thu 11:14:27 AM 41.9786 -86.1536 306° West 385 443 41,000  Level Chicago Center
Thu 11:15:28 AM 42.0408 -86.2703 306° West 382 440 41,000  Level Chicago Center
Thu 11:16:29 AM 42.1050 -86.3883 306° West 389 448 41,000  Level Chicago Center
Thu 11:17:30 AM 42.1708 -86.5078 307° West 396 456 41,000  Level Chicago Center
Thu 11:18:31 AM 42.2514 -86.6525 307° West 400 460 41,000  Level Chicago Center
Thu 11:19:32 AM 42.3122 -86.7639 306° West 413 475 41,000  Level Chicago Center
Thu 11:20:33 AM 42.3800 -86.8886 306° West 415 478 41,000  Level Chicago Center
Thu 11:21:34 AM 42.4600 -87.0394 306° West 417 480 41,000  Level Chicago Center
Thu 11:22:35 AM 42.5275 -87.1644 306° West 416 479 41,000 -295 Level Chicago Center
Thu 11:23:36 AM 42.5900 -87.2819 306° West 423 487 40,400 -492 Descending Chicago Center
Thu 11:24:37 AM 42.6669 -87.4256 306° West 427 491 40,000 -197 Descending Chicago Center
Thu 11:25:38 AM 42.7367 -87.5572 306° West 428 493 40,000  Level Chicago Center
Thu 11:26:39 AM 42.8056 -87.6892 305° West 426 490 40,000  Level Chicago Center
Thu 11:27:40 AM 42.8744 -87.8211 305° West 428 493 40,000  Level Chicago Center
Thu 11:28:41 AM 42.9450 -87.9514 307° West 426 490 40,000  Level Chicago Center
Thu 11:29:42 AM 43.0131 -88.0847 305° West 428 493 40,000  Level Chicago Center
Thu 11:30:43 AM 43.0825 -88.2194 305° West 431 496 40,000  Level Chicago Center
Thu 11:31:44 AM 43.1564 -88.3528 307° West 437 503 40,000  Level Chicago Center
Thu 11:32:45 AM 43.2347 -88.4869 309° West 445 512 40,000  Level Chicago Center
Thu 11:33:46 AM 43.3125 -88.6222 308° West 443 510 40,000  Level Chicago Center
Thu 11:34:48 AM 43.3917 -88.7558 309° West 443 510 40,000  Level Chicago Center
Thu 11:36:00 AM 43.4682 -88.8862 309° West  Level FlightAware Approximate
Thu 11:43:00 AM 43.9079 -89.6576 307° West  Level FlightAware Approximate
Thu 11:44:00 AM 43.9691 -89.7700 307° West  Level FlightAware Approximate
Thu 11:45:00 AM 44.0302 -89.8826 307° West  Level FlightAware Approximate
Thu 11:46:00 AM 44.0917 -89.9949 308° West  Level FlightAware Approximate
Thu 11:47:00 AM 44.1537 -90.1069 307° West  Level FlightAware Approximate
Thu 11:48:00 AM 44.2143 -90.2203 307° West  Level FlightAware Approximate
Thu 11:49:00 AM 44.2748 -90.3340 307° West  Level FlightAware Approximate
Thu 11:50:00 AM 44.3378 -90.4452 309° West  Level FlightAware Approximate
Thu 11:51:00 AM 44.3969 -90.5605 305° West  Level FlightAware Approximate
Thu 11:52:00 AM 44.4624 -90.6686 313° West  Level FlightAware Approximate
Thu 11:53:00 AM 44.5253 -90.7800 306° West  Level FlightAware Approximate
Thu 11:54:00 AM 44.5853 -90.8948 306° West  Level FlightAware Approximate
Thu 11:55:00 AM 44.6452 -91.0098 306° West  Level FlightAware Approximate
Thu 11:56:00 AM 44.7052 -91.1249 306° West  Level FlightAware Approximate
Thu 11:57:00 AM 44.7654 -91.2399 306° West  Level FlightAware Approximate
Thu 11:58:00 AM 44.8254 -91.3551 306° West  Level FlightAware Approximate
Thu 11:59:00 AM 44.8845 -91.4713 290° West  Level FlightAware Approximate
Thu 12:00:00 PM 44.9183 -91.6064 290° West  Level FlightAware Approximate
Thu 12:01:00 PM 44.9454 -91.7442 282° West  Level FlightAware Approximate
Thu 12:02:00 PM 44.9670 -91.8843 282° West  Level FlightAware Approximate
Thu 12:03:00 PM 44.9885 -92.0245 282° West  Level FlightAware Approximate
Thu 12:04:00 PM 45.0180 -92.1608 280° West  Level FlightAware Approximate
Thu 12:05:00 PM 45.0333 -92.3025 270° West  Level FlightAware Approximate
Thu 12:06:00 PM 45.0139 -92.4431 258° West  Level FlightAware Approximate
Thu 12:07:00 PM 44.9958 -92.5835 251° West  Level FlightAware Approximate
Thu 12:08:00 PM 44.9667 -92.7198 270° West  Level FlightAware Approximate
Thu 12:09:00 PM 44.9472 -92.8603 258° West  Level FlightAware Approximate
Thu 12:10:00 PM 44.9212 -92.9986 251° West  Level FlightAware Approximate
Thu 12:11:00 PM 44.8971 -93.1354 248° West  Level FlightAware Approximate
Thu 12:12:00 PM 44.8667 -93.2167 235° Southwest  Level FlightAware Approximate
Thu 12:13:00 PM 44.8820 -93.2218 235° Southwest  Level Estimated
Thu 12:14:00 PM 44.8820 -93.2218 235° Southwest  Level Estimated
Thu 12:15:00 PM 44.8820 -93.2218 235° Southwest  Level Estimated
Thu 12:16:00 PM 44.8820 -93.2218 235° Southwest  Level Estimated
Thu 12:17:00 PM 44.8820 -93.2218 235° Southwest  Level Estimated
Thu 12:18:00 PM 44.8820 -93.2218 235° Southwest  Level Estimated
Thu 12:19:00 PM 44.8820 -93.2218 235° Southwest  Level Estimated
Thu 12:20:00 PM 44.8820 -93.2218 235° Southwest  Level Estimated
Thu 12:21:00 PM 44.8820 -93.2218 235° Southwest  Level Estimated
Thu 12:22:00 PM 44.8820 -93.2218 235° Southwest  Level Estimated
Thu 12:23:00 PM 44.8820 -93.2218 235° Southwest  Level Estimated
Thu 12:24:00 PM 44.8820 -93.2218 235° Southwest  Level Estimated
Thu 12:25:00 PM 44.8820 -93.2218 235° Southwest  Level Estimated
Thu 12:26:00 PM 44.8820 -93.2218 235° Southwest  Level Estimated
Thu 12:27:00 PM 44.8820 -93.2218 235° Southwest  Level Estimated
Thu 12:28:00 PM 44.8820 -93.2218 235° Southwest  Level Estimated
Thu 12:29:00 PM 44.8820 -93.2218 235° Southwest  Level Estimated
Thu 12:30:00 PM 44.8820 -93.2218 235° Southwest  Level Estimated
Thu 12:31:00 PM 44.8820 -93.2218 235° Southwest  Level Estimated
Thu 12:32:00 PM 44.8820 -93.2218 235° Southwest  Level Estimated
Thu 12:33:00 PM 44.8820 -93.2218 235° Southwest  Level Estimated
Thu 12:34:00 PM 44.8820 -93.2218 235° Southwest  Level Estimated
Thu 12:35:00 PM 44.8820 -93.2218 235° Southwest  Level Estimated
Thu 12:36:00 PM 44.8820 -93.2218 235° Southwest  Level Estimated
Thu 12:37:00 PM 44.8820 -93.2218 235° Southwest  Level Estimated
Thu 12:38:00 PM 44.8820 -93.2218 235° Southwest  Level Estimated
Thu 12:39:00 PM 44.8820 -93.2218 235° Southwest  Level Estimated
Thu 12:40:00 PM 44.8820 -93.2218 235° Southwest  Level Estimated

Login

Don't have an account? Register now (free) for customized features, flight alerts, and more!